Puropanmaru No.3 — JD3322 — position and weather

sailwx.info

Track history (hours):
 
Tides and Currents Weather Stations Pressure Air Temp Water Temp Dewpoint Dewpoint Depression Visibility Wind Speed Wind Dir Waves Ship Positions

Puropanmaru No.3

Last reported at 2016-Jun-23 05:33 UTC. Time now 2016-Jun-30 12:22 UTC.
Position N 35°22' E 139°42'.

Length 68 m; draft 4.5 m.

Type: Tanker. MMSI: 431003365.

Date/timePositionNaut miles runAvg speedWind from/ knotsBaromVisibWave heightAir tempDewpointWater temp
2016-Jun-23 05:33N 35°22' E 139°42'1212.1
2016-Jun-23 04:33N 35°30' E 139°53'9 8.6
2016-Jun-23 03:33N 35°32' E 140°03'0 0.0
2016-Jun-23 02:33N 35°32' E 140°03'0 0.0
2016-Jun-23 01:33N 35°32' E 140°03'0 0.0
2016-Jun-23 00:33N 35°32' E 140°03'0 0.4
2016-Jun-22 23:33N 35°32' E 140°03'7 7.0
2016-Jun-22 22:33N 35°28' E 139°56'0 0.0
2016-Jun-22 21:28N 35°28' E 139°56'0 0.0
2016-Jun-22 20:31N 35°28' E 139°56'0 0.1
2016-Jun-22 19:31N 35°28' E 139°56'0 0.0
2016-Jun-22 18:31N 35°28' E 139°56'0 0.0
2016-Jun-22 17:31N 35°28' E 139°56'0 0.1
2016-Jun-22 16:31N 35°28' E 139°56'0 0.0
2016-Jun-22 15:31N 35°28' E 139°56'0 0.0
2016-Jun-22 14:31N 35°28' E 139°56'0 0.0
2016-Jun-22 13:31N 35°28' E 139°56'0 0.0
2016-Jun-22 12:28N 35°28' E 139°56'0 0.0
2016-Jun-22 11:22N 35°28' E 139°56'0 0.0
2016-Jun-22 10:25N 35°28' E 139°56'0 0.0
2016-Jun-22 09:31N 35°28' E 139°56'0 0.0
2016-Jun-22 08:31N 35°28' E 139°56'0 0.0
2016-Jun-22 07:25N 35°28' E 139°56'1 1.4
2016-Jun-22 06:33N 35°28' E 139°54'1212.5
2016-Jun-22 05:33N 35°19' E 139°44'1212.2
2016-Jun-22 04:33N 35°07' E 139°46'  
2016-Jun-19 06:13N 35°10' E 139°44'711.0
2016-Jun-19 05:33N 35°17' E 139°45'10 9.8
2016-Jun-19 04:33N 35°26' E 139°46'1211.9
2016-Jun-19 03:33N 35°32' E 139°59'3 3.4
2016-Jun-19 02:33N 35°32' E 140°03'0 0.0
2016-Jun-19 01:33N 35°32' E 140°03'0 0.0
2016-Jun-19 00:33N 35°32' E 140°03'0 0.0
2016-Jun-18 23:33N 35°32' E 140°03'1 1.1
2016-Jun-18 22:33N 35°33' E 140°03'2 1.8
2016-Jun-18 21:23N 35°34' E 140°05'0 0.0
2016-Jun-18 20:11N 35°34' E 140°05'0 0.0
2016-Jun-18 19:23N 35°34' E 140°05'0 0.0
2016-Jun-18 18:29N 35°33' E 140°05'0 0.0
2016-Jun-18 17:23N 35°33' E 140°05'0 0.0
2016-Jun-18 16:32N 35°33' E 140°05'0 0.0
2016-Jun-18 15:29N 35°33' E 140°05'0 0.0
2016-Jun-18 14:32N 35°33' E 140°05'0 0.0
2016-Jun-18 13:17N 35°33' E 140°05'0 0.0
2016-Jun-18 12:23N 35°33' E 140°05'0 0.0
2016-Jun-18 11:32N 35°34' E 140°05'0 0.0
2016-Jun-18 10:29N 35°34' E 140°05'0 0.0
2016-Jun-18 09:29N 35°34' E 140°05'0 0.0
2016-Jun-18 08:26N 35°34' E 140°05'0 0.0
2016-Jun-18 07:26N 35°34' E 140°05'0 0.0
2016-Jun-18 06:29N 35°34' E 140°05'0 0.0
2016-Jun-18 05:29N 35°34' E 140°05'0 0.0
2016-Jun-18 04:26N 35°34' E 140°05'0 0.0
2016-Jun-18 03:29N 35°34' E 140°05'0 0.0
2016-Jun-18 02:29N 35°34' E 140°05'0 0.0
2016-Jun-18 01:29N 35°34' E 140°05'0 0.0
2016-Jun-18 00:29N 35°34' E 140°05'0 0.0
2016-Jun-17 23:29N 35°34' E 140°05'0 0.0
2016-Jun-17 22:23N 35°34' E 140°05'0 0.0
2016-Jun-17 21:23N 35°33' E 140°05'0 0.0
2016-Jun-17 20:29N 35°34' E 140°05'0 0.1
2016-Jun-17 19:29N 35°34' E 140°05'0 0.0
2016-Jun-17 18:32N 35°34' E 140°05'0 0.1
2016-Jun-17 17:23N 35°33' E 140°05'0 0.0
2016-Jun-17 16:32N 35°33' E 140°05'0 0.0
2016-Jun-17 15:32N 35°33' E 140°05'0 0.0
2016-Jun-17 14:29N 35°33' E 140°05'0 0.0
2016-Jun-17 13:29N 35°33' E 140°05'0 0.2
2016-Jun-17 12:34N 35°33' E 140°05'1111.5
2016-Jun-17 11:34N 35°29' E 139°52'1212.3
2016-Jun-17 10:34N 35°18' E 139°44'1212.0
2016-Jun-17 09:32N 35°06' E 139°45'  
Track history (hours):
 
Tides and Currents Weather Stations Pressure Air Temp Water Temp Dewpoint Dewpoint Depression Visibility Wind Speed Wind Dir Waves Ship Positions

Puropanmaru No.3

Last reported at 2016-Jun-23 05:33 UTC. Time now 2016-Jun-30 12:22 UTC.
Position N 35°22' E 139°42'.

Length 68 m; draft 4.5 m.

Type: Tanker. MMSI: 431003365.

Date/timePositionNaut miles runAvg speedWind from/ knotsBaromVisibWave heightAir tempDewpointWater temp
2016-Jun-23 05:33N 35°22' E 139°42'1212.1
2016-Jun-23 04:33N 35°30' E 139°53'9 8.6
2016-Jun-23 03:33N 35°32' E 140°03'0 0.0
2016-Jun-23 02:33N 35°32' E 140°03'0 0.0
2016-Jun-23 01:33N 35°32' E 140°03'0 0.0
2016-Jun-23 00:33N 35°32' E 140°03'0 0.4
2016-Jun-22 23:33N 35°32' E 140°03'7 7.0
2016-Jun-22 22:33N 35°28' E 139°56'0 0.0
2016-Jun-22 21:28N 35°28' E 139°56'0 0.0
2016-Jun-22 20:31N 35°28' E 139°56'0 0.1
2016-Jun-22 19:31N 35°28' E 139°56'0 0.0
2016-Jun-22 18:31N 35°28' E 139°56'0 0.0
2016-Jun-22 17:31N 35°28' E 139°56'0 0.1
2016-Jun-22 16:31N 35°28' E 139°56'0 0.0
2016-Jun-22 15:31N 35°28' E 139°56'0 0.0
2016-Jun-22 14:31N 35°28' E 139°56'0 0.0
2016-Jun-22 13:31N 35°28' E 139°56'0 0.0
2016-Jun-22 12:28N 35°28' E 139°56'0 0.0
2016-Jun-22 11:22N 35°28' E 139°56'0 0.0
2016-Jun-22 10:25N 35°28' E 139°56'0 0.0
2016-Jun-22 09:31N 35°28' E 139°56'0 0.0
2016-Jun-22 08:31N 35°28' E 139°56'0 0.0
2016-Jun-22 07:25N 35°28' E 139°56'1 1.4
2016-Jun-22 06:33N 35°28' E 139°54'1212.5
2016-Jun-22 05:33N 35°19' E 139°44'1212.2
2016-Jun-22 04:33N 35°07' E 139°46'  
2016-Jun-19 06:13N 35°10' E 139°44'711.0
2016-Jun-19 05:33N 35°17' E 139°45'10 9.8
2016-Jun-19 04:33N 35°26' E 139°46'1211.9
2016-Jun-19 03:33N 35°32' E 139°59'3 3.4
2016-Jun-19 02:33N 35°32' E 140°03'0 0.0
2016-Jun-19 01:33N 35°32' E 140°03'0 0.0
2016-Jun-19 00:33N 35°32' E 140°03'0 0.0
2016-Jun-18 23:33N 35°32' E 140°03'1 1.1
2016-Jun-18 22:33N 35°33' E 140°03'2 1.8
2016-Jun-18 21:23N 35°34' E 140°05'0 0.0
2016-Jun-18 20:11N 35°34' E 140°05'0 0.0
2016-Jun-18 19:23N 35°34' E 140°05'0 0.0
2016-Jun-18 18:29N 35°33' E 140°05'0 0.0
2016-Jun-18 17:23N 35°33' E 140°05'0 0.0
2016-Jun-18 16:32N 35°33' E 140°05'0 0.0
2016-Jun-18 15:29N 35°33' E 140°05'0 0.0
2016-Jun-18 14:32N 35°33' E 140°05'0 0.0
2016-Jun-18 13:17N 35°33' E 140°05'0 0.0
2016-Jun-18 12:23N 35°33' E 140°05'0 0.0
2016-Jun-18 11:32N 35°34' E 140°05'0 0.0
2016-Jun-18 10:29N 35°34' E 140°05'0 0.0
2016-Jun-18 09:29N 35°34' E 140°05'0 0.0
2016-Jun-18 08:26N 35°34' E 140°05'0 0.0
2016-Jun-18 07:26N 35°34' E 140°05'0 0.0
2016-Jun-18 06:29N 35°34' E 140°05'0 0.0
2016-Jun-18 05:29N 35°34' E 140°05'0 0.0
2016-Jun-18 04:26N 35°34' E 140°05'0 0.0
2016-Jun-18 03:29N 35°34' E 140°05'0 0.0
2016-Jun-18 02:29N 35°34' E 140°05'0 0.0
2016-Jun-18 01:29N 35°34' E 140°05'0 0.0
2016-Jun-18 00:29N 35°34' E 140°05'0 0.0
2016-Jun-17 23:29N 35°34' E 140°05'0 0.0
2016-Jun-17 22:23N 35°34' E 140°05'0 0.0
2016-Jun-17 21:23N 35°33' E 140°05'0 0.0
2016-Jun-17 20:29N 35°34' E 140°05'0 0.1
2016-Jun-17 19:29N 35°34' E 140°05'0 0.0
2016-Jun-17 18:32N 35°34' E 140°05'0 0.1
2016-Jun-17 17:23N 35°33' E 140°05'0 0.0
2016-Jun-17 16:32N 35°33' E 140°05'0 0.0
2016-Jun-17 15:32N 35°33' E 140°05'0 0.0
2016-Jun-17 14:29N 35°33' E 140°05'0 0.0
2016-Jun-17 13:29N 35°33' E 140°05'0 0.2
2016-Jun-17 12:34N 35°33' E 140°05'1111.5
2016-Jun-17 11:34N 35°29' E 139°52'1212.3
2016-Jun-17 10:34N 35°18' E 139°44'1212.0
2016-Jun-17 09:32N 35°06' E 139°45'  

Dump ship's entire track history